Archival Weather

South Haven Area Rgnl

South Haven, Michigan (KLWA)

Report from: Thursday, September 21, 2023 1:15 PM EDT
Current time: Tuesday, February 27, 2024 6:09 AM EST

Current weather – Weather history – Daily summaries
Weather forecast

Temperature24.5°C (76.1°F)
Dew point17.0°C (62.6°F)
Winds 4 kts (2.1 m/s, 4.6 mph) Southeast (130°)
Visibility10 mi. (16.1 km)
Clouds Sky clear
Altimeter30.24 in.Hg (1024 mB)
Relative humidity63 %
Density altitude1,005 ft. (306 m)
Remarks Fully automated report
Automated weather observing station with precipitation discriminator
Flight conditions Visual Meteorological Conditions
Raw dataKLWA 211715Z AUTO 13004KT 10SM CLR 25/17 A3024 RMK AO2 T02450170
An error has occurred. This application may no longer respond until reloaded. Reload 🗙